Time;durP1;ratioP1;P1;durP2;ratioP2;P2;SDS_P1;SDS_P2;PMS_P1;PMS_P2;Temp;Humidity;BMP_temperature;BMP_pressure;BME280_temperature;BME280_humidity;BME280_pressure;Samples;Min_cycle;Max_cycle;Signal;HPM_P1;HPM_P2
2022/12/15 06:04:04;;;;;;;49.42;24.38;;;-0.20;99.90;;;;;;4851353;29;20049;-74
2022/12/15 06:06:30;;;;;;;49.13;24.35;;;-0.30;99.90;;;;;;4846153;29;20273;-73
2022/12/15 06:08:57;;;;;;;47.20;23.15;;;-0.30;99.90;;;;;;4834563;29;20030;-74
2022/12/15 06:11:22;;;;;;;42.60;22.13;;;-0.40;99.90;;;;;;4850163;29;20042;-72
2022/12/15 06:13:48;;;;;;;46.85;22.63;;;-0.30;99.90;;;;;;4852864;29;20307;-73
2022/12/15 06:16:19;;;;;;;48.72;23.45;;;-0.30;99.90;;;;;;4849588;29;20042;-72
2022/12/15 06:18:51;;;;;;;52.42;24.50;;;-0.30;99.90;;;;;;4834442;29;20034;-71
2022/12/15 06:21:23;;;;;;;45.50;22.10;;;-0.30;99.90;;;;;;4817995;29;20343;-74
2022/12/15 06:23:49;;;;;;;49.60;24.88;;;-0.30;99.90;;;;;;4839888;29;20101;-73
2022/12/15 06:26:30;;;;;;;45.90;22.98;;;-0.30;99.90;;;;;;4832641;29;20060;-73
2022/12/15 06:28:58;;;;;;;49.60;24.42;;;-0.20;99.90;;;;;;4838342;29;20042;-73
2022/12/15 06:31:25;;;;;;;51.22;23.45;;;-0.20;99.90;;;;;;4852740;29;20042;-74
2022/12/15 06:33:51;;;;;;;45.40;22.33;;;-0.10;99.90;;;;;;4852448;29;20029;-74
2022/12/15 06:36:18;;;;;;;46.47;24.13;;;0.00;99.90;;;;;;4851906;29;20045;-74
2022/12/15 06:38:44;;;;;;;49.95;23.98;;;0.00;99.90;;;;;;4852458;29;20026;-73
2022/12/15 06:41:13;;;;;;;49.28;24.20;;;-0.10;99.90;;;;;;4852048;29;20022;-71
2022/12/15 06:43:39;;;;;;;46.65;23.50;;;-0.20;99.90;;;;;;4852048;29;20092;-72
2022/12/15 06:46:05;;;;;;;45.88;22.35;;;-0.20;99.90;;;;;;4836075;29;20033;-73
2022/12/15 06:48:30;;;;;;;47.20;23.85;;;-0.20;99.90;;;;;;4852032;29;20058;-72
2022/12/15 06:51:02;;;;;;;44.25;23.35;;;-0.10;99.90;;;;;;4852051;29;20042;-72
2022/12/15 06:53:28;;;;;;;47.97;22.98;;;-0.10;99.90;;;;;;4851568;29;20106;-74
2022/12/15 06:56:00;;;;;;;51.03;25.27;;;-0.10;99.90;;;;;;4852146;29;20227;-75
2022/12/15 06:58:26;;;;;;;50.70;24.27;;;-0.10;99.90;;;;;;4834425;29;20034;-73
2022/12/15 07:00:52;;;;;;;49.22;24.85;;;-0.10;99.90;;;;;;4850801;29;20034;-73
2022/12/15 07:03:19;;;;;;;45.67;22.70;;;-0.20;99.90;;;;;;4851640;29;20102;-74
2022/12/15 07:05:45;;;;;;;47.38;23.58;;;-0.20;99.90;;;;;;4852124;29;20371;-73
2022/12/15 07:08:14;;;;;;;48.90;23.83;;;-0.20;99.90;;;;;;4851951;29;20026;-72
2022/12/15 07:10:42;;;;;;;50.35;24.55;;;-0.30;99.90;;;;;;4851088;29;20036;-73
2022/12/15 07:13:12;;;;;;;50.75;23.95;;;-0.30;99.90;;;;;;4850701;29;20041;-72
2022/12/15 07:15:39;;;;;;;48.80;23.45;;;-0.30;99.90;;;;;;4845339;29;20033;-76
2022/12/15 07:18:05;;;;;;;49.13;23.65;;;-0.20;99.90;;;;;;4835186;29;20328;-76
2022/12/15 07:20:31;;;;;;;48.55;23.77;;;-0.10;99.90;;;;;;4832869;29;20377;-76
2022/12/15 07:22:57;;;;;;;47.03;22.95;;;-0.10;99.90;;;;;;4846523;29;20025;-76
2022/12/15 07:25:23;;;;;;;53.53;25.20;;;-0.10;99.90;;;;;;4851446;29;20041;-78
2022/12/15 07:27:49;;;;;;;52.20;24.33;;;-0.10;99.90;;;;;;4850413;29;20041;-74
2022/12/15 07:30:16;;;;;;;45.03;23.67;;;-0.10;99.90;;;;;;4831082;29;20038;-76
2022/12/15 07:32:43;;;;;;;49.13;24.03;;;0.00;99.90;;;;;;4831992;29;20034;-73
2022/12/15 07:35:09;;;;;;;45.10;23.23;;;0.00;99.90;;;;;;4832112;29;20034;-75
2022/12/15 07:37:35;;;;;;;49.55;23.85;;;0.00;99.90;;;;;;4832166;29;20106;-73
2022/12/15 07:40:02;;;;;;;51.58;23.33;;;0.00;99.90;;;;;;4836531;29;20017;-75
2022/12/15 07:42:28;;;;;;;47.58;24.60;;;0.10;99.90;;;;;;4833793;29;20030;-76
2022/12/15 07:44:54;;;;;;;47.13;22.92;;;0.10;99.90;;;;;;4850313;29;20030;-76
2022/12/15 07:47:20;;;;;;;48.03;22.58;;;0.10;99.90;;;;;;4849891;29;20040;-74
2022/12/15 07:49:46;;;;;;;48.15;24.23;;;0.10;99.90;;;;;;4850291;29;20092;-73
2022/12/15 07:52:12;;;;;;;48.03;23.33;;;0.10;99.90;;;;;;4849980;29;20027;-73
2022/12/15 07:54:39;;;;;;;48.95;23.25;;;0.20;99.90;;;;;;4849577;29;20040;-72
2022/12/15 07:57:06;;;;;;;48.22;24.42;;;0.20;99.90;;;;;;4850006;29;20049;-74
2022/12/15 07:59:33;;;;;;;43.25;21.88;;;0.30;99.90;;;;;;4849672;29;20072;-74
2022/12/15 08:01:59;;;;;;;43.30;21.88;;;0.40;99.90;;;;;;4849570;29;20147;-73
2022/12/15 08:04:26;;;;;;;48.58;22.60;;;0.50;99.90;;;;;;4849428;29;20034;-72
2022/12/15 08:06:56;;;;;;;47.42;22.48;;;0.50;99.90;;;;;;4833726;29;20120;-74
2022/12/15 08:09:22;;;;;;;47.42;24.08;;;0.50;99.90;;;;;;4848941;29;20157;-74
2022/12/15 08:11:47;;;;;;;44.53;22.00;;;0.60;99.90;;;;;;4833834;29;20034;-75
2022/12/15 08:14:14;;;;;;;49.33;23.48;;;0.60;99.90;;;;;;4849856;29;20320;-74
2022/12/15 08:16:39;;;;;;;41.90;21.10;;;0.60;99.90;;;;;;4849004;29;20052;-73
2022/12/15 08:19:09;;;;;;;43.83;20.90;;;0.50;99.90;;;;;;4835198;29;20030;-74
2022/12/15 08:21:35;;;;;;;42.58;20.98;;;0.60;99.90;;;;;;4835741;29;20032;-74
2022/12/15 08:24:03;;;;;;;44.53;21.95;;;0.70;99.90;;;;;;4833466;29;20110;-75
2022/12/15 08:26:29;;;;;;;42.00;20.65;;;0.70;99.90;;;;;;4848973;29;20323;-75
2022/12/15 08:29:02;;;;;;;44.65;22.25;;;0.80;99.90;;;;;;4833335;29;20119;-75
2022/12/15 08:31:30;;;;;;;45.38;21.55;;;0.90;99.90;;;;;;4849206;29;20034;-74
2022/12/15 08:33:56;;;;;;;47.30;21.63;;;0.80;99.90;;;;;;4849771;29;20087;-75
2022/12/15 08:36:22;;;;;;;50.00;22.52;;;0.90;99.90;;;;;;4849428;29;20049;-75
2022/12/15 08:38:48;;;;;;;48.03;21.92;;;0.90;99.90;;;;;;4849492;29;20251;-75
2022/12/15 08:41:18;;;;;;;48.17;22.80;;;1.00;99.90;;;;;;4833298;29;20204;-73
2022/12/15 08:43:46;;;;;;;45.20;22.13;;;1.00;99.90;;;;;;4848888;29;20054;-73
2022/12/15 08:46:12;;;;;;;46.28;21.73;;;1.00;99.90;;;;;;4849075;29;20037;-74
2022/12/15 08:48:38;;;;;;;45.30;21.48;;;1.00;99.90;;;;;;4849282;29;20327;-73
2022/12/15 08:51:05;;;;;;;45.83;22.42;;;1.00;99.90;;;;;;4849506;29;20050;-74
2022/12/15 08:53:30;;;;;;;44.25;20.98;;;1.00;99.90;;;;;;4832761;29;20033;-74
2022/12/15 08:56:04;;;;;;;43.30;21.95;;;1.00;99.90;;;;;;4849519;29;20094;-76
2022/12/15 08:58:32;;;;;;;45.03;20.30;;;1.10;99.90;;;;;;4816215;29;20272;-74
2022/12/15 09:01:01;;;;;;;42.13;21.20;;;1.10;99.90;;;;;;4849562;29;20056;-74
2022/12/15 09:03:27;;;;;;;42.95;21.35;;;1.30;99.90;;;;;;4832295;29;20247;-72
2022/12/15 09:05:53;;;;;;;45.10;21.60;;;1.30;99.90;;;;;;4849167;29;20042;-74
2022/12/15 09:08:18;;;;;;;45.72;21.40;;;1.30;99.90;;;;;;4849126;29;20363;-73
2022/12/15 09:10:44;;;;;;;43.70;20.20;;;1.30;99.90;;;;;;4848606;29;20316;-73
2022/12/15 09:13:10;;;;;;;43.60;20.15;;;1.30;99.90;;;;;;4832995;29;20042;-74
2022/12/15 09:15:36;;;;;;;42.80;20.80;;;1.30;99.90;;;;;;4832153;29;20316;-74
2022/12/15 09:18:02;;;;;;;44.92;20.83;;;1.30;99.90;;;;;;4842690;29;20018;-72
2022/12/15 09:20:28;;;;;;;42.30;20.40;;;1.40;99.90;;;;;;4830652;29;20169;-74
2022/12/15 09:22:53;;;;;;;43.92;21.60;;;1.50;99.90;;;;;;4832609;29;20026;-73
2022/12/15 09:25:19;;;;;;;45.97;21.55;;;1.50;99.90;;;;;;4852520;29;20030;-74
2022/12/15 09:27:45;;;;;;;40.63;19.63;;;1.60;99.90;;;;;;4852223;29;20110;-75
2022/12/15 09:30:11;;;;;;;39.72;20.50;;;1.60;99.90;;;;;;4852493;29;20038;-75
2022/12/15 09:32:37;;;;;;;48.67;22.02;;;1.80;99.90;;;;;;4851994;29;20089;-74
2022/12/15 09:35:05;;;;;;;47.20;21.88;;;1.80;99.90;;;;;;4852062;29;20498;-75
2022/12/15 09:37:31;;;;;;;47.80;20.85;;;1.90;99.90;;;;;;4851999;29;20038;-75
2022/12/15 09:39:57;;;;;;;42.03;20.27;;;1.90;99.90;;;;;;4852487;29;20041;-75
2022/12/15 09:42:30;;;;;;;41.75;21.08;;;1.90;99.90;;;;;;4852121;29;20077;-74
2022/12/15 09:45:06;;;;;;;43.92;20.17;;;2.00;99.90;;;;;;4851919;29;20227;-75
2022/12/15 09:47:55;;;;;;;42.40;20.30;;;2.10;99.90;;;;;;4851850;29;20045;-74
2022/12/15 09:50:49;;;;;;;42.45;20.35;;;2.20;99.90;;;;;;4852056;29;20057;-74
2022/12/15 09:53:17;;;;;;;41.83;20.10;;;2.20;99.90;;;;;;4851019;29;20095;-74
2022/12/15 09:55:50;;;;;;;40.47;20.87;;;2.30;99.90;;;;;;4851365;29;20129;-75
2022/12/15 09:58:35;;;;;;;43.22;20.75;;;2.40;99.90;;;;;;4835774;29;20159;-74
2022/12/15 10:01:11;;;;;;;41.05;19.73;;;2.60;99.90;;;;;;4851842;29;20034;-74
2022/12/15 10:03:58;;;;;;;40.28;20.45;;;2.80;99.90;;;;;;4851102;29;20050;-74
2022/12/15 10:06:58;;;;;;;41.38;19.35;;;2.90;99.90;;;;;;4851881;29;20042;-74
2022/12/15 10:09:29;;;;;;;40.63;19.63;;;3.00;99.90;;;;;;4847880;29;20042;-74
2022/12/15 10:12:28;;;;;;;40.30;20.75;;;3.00;99.90;;;;;;4852017;29;20334;-74
2022/12/15 10:15:03;;;;;;;40.92;20.33;;;3.00;99.90;;;;;;4851762;29;20054;-74
2022/12/15 10:17:48;;;;;;;42.53;20.42;;;2.90;99.90;;;;;;4848474;29;20200;-73
2022/12/15 10:20:26;;;;;;;38.13;19.33;;;2.80;99.90;;;;;;4833486;29;20037;-74
2022/12/15 10:22:55;;;;;;;40.95;20.23;;;2.60;99.90;;;;;;4847321;29;20300;-73
2022/12/15 10:25:29;;;;;;;41.15;19.73;;;2.50;99.90;;;;;;4845739;29;20034;-73
2022/12/15 10:28:20;;;;;;;43.22;20.45;;;2.40;99.90;;;;;;4817116;29;20125;-74
2022/12/15 10:31:15;;;;;;;41.28;21.13;;;2.30;99.90;;;;;;4842768;29;20321;-74
2022/12/15 10:33:43;;;;;;;42.40;20.42;;;2.30;99.90;;;;;;4834412;29;20040;-74
2022/12/15 10:36:14;;;;;;;40.75;20.52;;;2.30;99.90;;;;;;4851115;29;20038;-73
2022/12/15 10:38:44;;;;;;;43.35;20.90;;;2.40;99.90;;;;;;4850753;29;20307;-74
2022/12/15 10:41:31;;;;;;;41.65;20.30;;;2.40;99.90;;;;;;4851147;29;20025;-74
2022/12/15 10:43:57;;;;;;;45.53;22.05;;;2.40;99.90;;;;;;4851437;29;20375;-74
2022/12/15 10:46:30;;;;;;;40.78;20.38;;;2.30;99.90;;;;;;4850831;29;20101;-74
2022/12/15 10:49:22;;;;;;;40.95;20.90;;;2.30;99.90;;;;;;4851184;29;20072;-74
2022/12/15 10:51:59;;;;;;;39.60;19.35;;;2.10;99.90;;;;;;4834301;29;20385;-75
2022/12/15 10:54:30;;;;;;;43.05;19.67;;;2.20;99.90;;;;;;4850851;29;20038;-75
2022/12/15 10:56:58;;;;;;;44.38;21.30;;;2.30;99.90;;;;;;4834492;29;20049;-74
2022/12/15 10:59:31;;;;;;;47.50;21.70;;;2.30;99.90;;;;;;4850738;29;20092;-75
2022/12/15 11:02:32;;;;;;;43.25;21.65;;;2.30;99.90;;;;;;4850751;29;20076;-73
2022/12/15 11:04:58;;;;;;;37.90;20.23;;;2.30;99.90;;;;;;4850715;29;20072;-73
2022/12/15 11:08:00;;;;;;;43.00;21.67;;;2.40;99.90;;;;;;4855483;29;20064;-74
2022/12/15 11:13:16;;;;;;;40.28;20.30;;;2.50;99.90;;;;;;4849362;29;20267;-74
2022/12/15 11:15:52;;;;;;;41.83;21.10;;;2.60;99.90;;;;;;4868530;29;20045;-73
2022/12/15 11:18:30;;;;;;;37.92;19.13;;;2.60;99.90;;;;;;4868996;29;20057;-77
2022/12/15 11:21:04;;;;;;;43.03;20.95;;;2.60;99.90;;;;;;4868817;29;20029;-74
2022/12/15 11:23:49;;;;;;;37.75;21.05;;;2.70;99.90;;;;;;4850222;29;20105;-75
2022/12/15 11:26:25;;;;;;;39.83;21.13;;;2.70;99.90;;;;;;4849765;29;20296;-73
2022/12/15 11:29:14;;;;;;;40.72;20.15;;;2.70;99.90;;;;;;4850753;29;20041;-72
2022/12/15 11:31:43;;;;;;;38.17;19.98;;;2.80;99.90;;;;;;4852644;29;20070;-74
2022/12/15 11:34:16;;;;;;;39.97;21.17;;;2.80;99.90;;;;;;4850295;29;20065;-73
2022/12/15 11:37:09;;;;;;;37.20;20.48;;;2.90;99.90;;;;;;4850483;29;20065;-73
2022/12/15 11:40:14;;;;;;;42.17;21.52;;;3.00;99.90;;;;;;4848623;29;20041;-73
2022/12/15 11:42:43;;;;;;;38.03;20.50;;;2.90;99.90;;;;;;4850080;29;20072;-73
2022/12/15 11:45:29;;;;;;;41.90;21.40;;;2.80;99.90;;;;;;4849528;29;20093;-74
2022/12/15 11:48:16;;;;;;;41.50;20.55;;;2.90;99.90;;;;;;4849944;29;20045;-73
2022/12/15 11:50:58;;;;;;;40.45;20.88;;;2.80;99.90;;;;;;4849770;29;20319;-73
2022/12/15 11:53:59;;;;;;;45.75;21.38;;;2.80;99.90;;;;;;4849692;29;20036;-73
2022/12/15 11:56:30;;;;;;;39.65;19.92;;;2.80;99.90;;;;;;4850009;29;20029;-74
2022/12/15 11:59:05;;;;;;;38.67;21.38;;;2.70;99.90;;;;;;4849440;29;20042;-74
2022/12/15 12:01:42;;;;;;;41.40;21.13;;;2.60;99.90;;;;;;4849662;29;20304;-74
2022/12/15 12:04:18;;;;;;;42.42;21.10;;;2.70;99.90;;;;;;4850007;29;20339;-73
2022/12/15 12:07:05;;;;;;;36.85;20.08;;;2.70;99.90;;;;;;4849528;29;20045;-76
2022/12/15 12:09:43;;;;;;;39.67;20.43;;;2.70;99.90;;;;;;4854060;29;20038;-78
2022/12/15 12:12:29;;;;;;;41.03;20.23;;;2.70;99.90;;;;;;4868664;29;20361;-73
2022/12/15 12:15:04;;;;;;;39.95;20.58;;;2.70;99.90;;;;;;4851573;29;20149;-73
2022/12/15 12:17:51;;;;;;;39.53;21.38;;;2.70;99.90;;;;;;4868518;29;20037;-73
2022/12/15 12:20:28;;;;;;;38.27;19.77;;;2.80;99.90;;;;;;4868576;29;20017;-72
2022/12/15 12:23:04;;;;;;;38.75;19.77;;;2.90;99.90;;;;;;4874604;29;20052;-73
2022/12/15 12:25:38;;;;;;;40.30;20.10;;;3.00;99.90;;;;;;4856432;29;20172;-72
2022/12/15 12:28:21;;;;;;;37.38;20.05;;;3.10;99.90;;;;;;4887000;29;20049;-72
2022/12/15 12:30:47;;;;;;;35.97;18.83;;;3.10;99.90;;;;;;4873492;29;20396;-72
2022/12/15 12:33:39;;;;;;;35.97;19.75;;;3.10;99.90;;;;;;4867780;29;20056;-71
2022/12/15 12:36:12;;;;;;;37.13;19.05;;;3.30;99.90;;;;;;4868093;29;20037;-73
2022/12/15 12:38:45;;;;;;;39.33;21.15;;;3.20;99.90;;;;;;4858844;29;20037;-72
2022/12/15 12:41:39;;;;;;;35.85;19.83;;;3.30;99.90;;;;;;4867514;29;20214;-72
2022/12/15 12:44:28;;;;;;;36.92;20.92;;;3.50;99.90;;;;;;4868095;29;20029;-75
2022/12/15 12:46:57;;;;;;;35.70;19.30;;;3.70;99.90;;;;;;4867501;29;20358;-73
2022/12/15 12:49:41;;;;;;;37.03;21.17;;;4.00;99.90;;;;;;4867782;29;20033;-73
2022/12/15 12:52:21;;;;;;;38.03;19.60;;;4.20;99.90;;;;;;4868260;29;20271;-73
2022/12/15 12:54:55;;;;;;;35.15;19.42;;;4.20;99.90;;;;;;4868071;29;20268;-72
2022/12/15 12:57:37;;;;;;;39.08;20.65;;;4.20;99.90;;;;;;4871757;29;20049;-73
2022/12/15 13:00:27;;;;;;;33.50;19.40;;;4.10;99.90;;;;;;4854908;29;20052;-72
2022/12/15 13:03:15;;;;;;;36.35;19.02;;;4.20;99.90;;;;;;4871052;29;20236;-73
2022/12/15 13:05:41;;;;;;;;;;;4.10;99.90;;;;;;4871966;29;20093;-74
2022/12/15 13:08:07;;;;;;;34.15;18.15;;;3.90;99.90;;;;;;4854486;29;19916;-74
2022/12/15 13:10:35;;;;;;;38.72;20.25;;;4.00;99.90;;;;;;4883010;29;20087;-73
2022/12/15 13:13:35;;;;;;;35.00;20.42;;;3.90;99.90;;;;;;4890011;29;20048;-74
2022/12/15 13:16:09;;;;;;;36.95;19.30;;;3.80;99.90;;;;;;4889789;29;20047;-74
2022/12/15 13:19:00;;;;;;;39.38;20.42;;;3.80;99.90;;;;;;4890054;29;20025;-74
2022/12/15 13:21:59;;;;;;;36.78;19.63;;;3.70;99.90;;;;;;4885734;29;20093;-73
2022/12/15 13:24:44;;;;;;;36.28;20.08;;;3.60;99.90;;;;;;4859805;29;20147;-75
2022/12/15 13:27:12;;;;;;;37.28;19.42;;;3.60;99.90;;;;;;4854367;29;20044;-73
2022/12/15 13:29:59;;;;;;;37.90;20.17;;;3.50;99.90;;;;;;4854059;29;20101;-75
2022/12/15 13:32:42;;;;;;;35.75;18.73;;;3.40;99.90;;;;;;4870919;29;20100;-74
2022/12/15 13:35:16;;;;;;;36.45;19.40;;;3.30;99.90;;;;;;4870763;29;20021;-74
2022/12/15 13:37:52;;;;;;;37.45;19.23;;;3.30;99.90;;;;;;4870474;29;20097;-75
2022/12/15 13:40:36;;;;;;;37.20;20.08;;;3.30;99.90;;;;;;4871080;29;20025;-74
2022/12/15 13:43:02;;;;;;;37.22;18.48;;;3.10;99.90;;;;;;4853989;29;20219;-74
2022/12/15 13:45:45;;;;;;;38.70;18.95;;;3.20;99.90;;;;;;4870646;29;20032;-75
2022/12/15 13:48:26;;;;;;;36.22;18.80;;;3.10;99.90;;;;;;4873810;29;20334;-76
2022/12/15 13:51:08;;;;;;;35.42;19.00;;;2.90;99.90;;;;;;4873890;29;20037;-73
2022/12/15 13:53:42;;;;;;;34.53;18.70;;;2.90;99.90;;;;;;4889298;29;20037;-73
2022/12/15 13:56:10;;;;;;;35.78;18.05;;;2.90;99.90;;;;;;4882791;29;20319;-75
2022/12/15 13:58:47;;;;;;;36.70;19.83;;;2.90;99.90;;;;;;4870601;29;20050;-76
2022/12/15 14:01:27;;;;;;;36.45;18.45;;;2.80;99.90;;;;;;4870473;29;20045;-73
2022/12/15 14:04:15;;;;;;;45.20;19.65;;;2.80;99.90;;;;;;4869913;29;20332;-75
2022/12/15 14:06:57;;;;;;;39.50;18.50;;;2.80;99.90;;;;;;4888142;29;20060;-74
2022/12/15 14:09:35;;;;;;;41.17;19.20;;;2.60;99.90;;;;;;4885850;29;20036;-75
2022/12/15 14:12:03;;;;;;;35.58;18.05;;;2.60;99.90;;;;;;4869549;29;20067;-73
2022/12/15 14:14:33;;;;;;;33.55;17.25;;;2.60;99.90;;;;;;4870589;29;20045;-73
2022/12/15 14:17:02;;;;;;;36.30;19.23;;;2.50;99.90;;;;;;4870789;29;20222;-75
2022/12/15 14:19:42;;;;;;;36.13;18.38;;;2.50;99.90;;;;;;4870207;29;20049;-74
2022/12/15 14:22:41;;;;;;;37.75;18.17;;;2.50;99.90;;;;;;4879077;29;20088;-74
2022/12/15 14:25:20;;;;;;;36.50;18.02;;;2.40;99.90;;;;;;4880790;29;20101;-74
2022/12/15 14:27:46;;;;;;;36.58;18.27;;;2.40;99.90;;;;;;4871746;29;20045;-75
2022/12/15 14:30:34;;;;;;;39.03;19.58;;;2.40;99.90;;;;;;4888885;29;20043;-75
2022/12/15 14:33:12;;;;;;;35.33;17.10;;;2.30;99.90;;;;;;4871704;29;20437;-75
2022/12/15 14:35:47;;;;;;;36.63;17.83;;;2.30;99.90;;;;;;4888485;29;20037;-76
2022/12/15 14:38:20;;;;;;;36.50;18.30;;;2.30;99.90;;;;;;4872936;29;20081;-75
2022/12/15 14:40:48;;;;;;;36.83;18.63;;;2.30;99.90;;;;;;4852912;29;20029;-73
2022/12/15 14:43:21;;;;;;;38.42;18.48;;;2.20;99.90;;;;;;4869877;29;20033;-75
2022/12/15 14:45:55;;;;;;;37.53;18.88;;;2.20;99.90;;;;;;4869438;29;20065;-74
2022/12/15 14:48:30;;;;;;;37.97;17.77;;;2.20;99.90;;;;;;4869758;29;20046;-72
2022/12/15 14:51:01;;;;;;;41.13;19.15;;;2.10;99.90;;;;;;4853157;29;20040;-75
2022/12/15 14:53:33;;;;;;;37.30;19.35;;;2.10;99.90;;;;;;4853136;29;20045;-73
2022/12/15 14:56:21;;;;;;;37.97;19.23;;;2.10;99.90;;;;;;4869262;29;20094;-74
2022/12/15 14:58:58;;;;;;;38.67;18.13;;;2.10;99.90;;;;;;4868984;29;20056;-74
2022/12/15 15:01:33;;;;;;;37.83;18.27;;;2.10;99.90;;;;;;4869226;29;20049;-74
2022/12/15 15:04:02;;;;;;;37.65;18.85;;;2.00;99.90;;;;;;4852752;29;20045;-73
2022/12/15 15:06:39;;;;;;;48.38;25.88;;;1.90;99.90;;;;;;4853206;29;20045;-72
2022/12/15 15:09:28;;;;;;;52.97;27.55;;;1.90;99.90;;;;;;4869446;29;20045;-73
2022/12/15 15:12:06;;;;;;;40.03;19.92;;;1.80;99.90;;;;;;4887523;29;20037;-73
2022/12/15 15:14:41;;;;;;;;;;;1.80;99.90;;;;;;4888286;29;20140;-73
2022/12/15 15:17:20;;;;;;;40.95;18.48;;;1.80;99.90;;;;;;4860135;29;19918;-75
2022/12/15 15:19:53;;;;;;;38.88;19.05;;;1.70;99.90;;;;;;4849634;29;20090;-72
2022/12/15 15:22:27;;;;;;;40.08;19.23;;;1.70;99.90;;;;;;4871372;29;20041;-73
2022/12/15 15:24:53;;;;;;;36.00;18.98;;;1.70;99.90;;;;;;4886921;29;20243;-74
2022/12/15 15:27:31;;;;;;;40.33;18.15;;;1.80;99.90;;;;;;4853517;29;20046;-75
2022/12/15 15:30:42;;;;;;;38.60;17.77;;;1.80;99.90;;;;;;4849797;29;20122;-73
2022/12/15 15:33:09;;;;;;;37.50;17.80;;;1.70;99.90;;;;;;4793770;29;20144;-73
2022/12/15 15:35:35;;;;;;;38.88;18.17;;;1.70;99.90;;;;;;4793802;29;20057;-74
2022/12/15 15:38:14;;;;;;;41.03;18.98;;;1.70;99.90;;;;;;4822620;29;20215;-73
2022/12/15 15:40:40;;;;;;;35.83;16.92;;;1.70;99.90;;;;;;4834293;29;20046;-76
2022/12/15 15:43:13;;;;;;;34.30;17.73;;;1.70;99.90;;;;;;4833604;29;20304;-73
2022/12/15 15:45:41;;;;;;;38.03;17.48;;;1.70;99.90;;;;;;4850280;29;20037;-73
2022/12/15 15:48:15;;;;;;;35.40;17.85;;;1.60;99.90;;;;;;4849407;29;20037;-74
2022/12/15 15:50:42;;;;;;;38.72;18.48;;;1.60;99.90;;;;;;4850094;29;20026;-74
2022/12/15 15:53:15;;;;;;;40.05;19.77;;;1.60;99.90;;;;;;4850370;29;20094;-75
2022/12/15 15:55:42;;;;;;;38.95;19.25;;;1.60;99.90;;;;;;4850312;29;20038;-74
2022/12/15 15:58:11;;;;;;;34.08;17.85;;;1.60;99.90;;;;;;4849447;29;20049;-74
2022/12/15 16:00:38;;;;;;;35.33;17.88;;;1.60;99.90;;;;;;4849736;29;20253;-74
2022/12/15 16:03:04;;;;;;;35.42;18.52;;;1.60;99.90;;;;;;4849339;29;20046;-74
2022/12/15 16:05:30;;;;;;;35.58;17.05;;;1.60;99.90;;;;;;4833778;29;20034;-74
2022/12/15 16:07:58;;;;;;;33.58;17.88;;;1.60;99.90;;;;;;4833280;29;20026;-73
2022/12/15 16:10:24;;;;;;;37.72;18.10;;;1.60;99.90;;;;;;4860800;29;20037;-73
2022/12/15 16:12:53;;;;;;;32.88;16.42;;;1.60;99.90;;;;;;4867885;29;20037;-74
2022/12/15 16:15:24;;;;;;;35.15;16.52;;;1.60;99.90;;;;;;4836703;29;20215;-76
2022/12/15 16:17:51;;;;;;;31.17;17.00;;;1.60;99.90;;;;;;4868128;29;20026;-75
2022/12/15 16:20:19;;;;;;;35.42;17.17;;;1.60;99.90;;;;;;4868197;29;20073;-75
2022/12/15 16:23:00;;;;;;;48.33;25.00;;;1.70;99.90;;;;;;4882052;29;20056;-78
2022/12/15 16:25:36;;;;;;;41.58;20.45;;;1.70;99.90;;;;;;4886796;29;20037;-77
2022/12/15 16:28:09;;;;;;;46.40;24.60;;;1.60;99.90;;;;;;4886406;29;20033;-74
2022/12/15 16:30:35;;;;;;;35.33;19.00;;;1.70;99.90;;;;;;4888807;29;20040;-77
2022/12/15 16:33:02;;;;;;;40.63;21.27;;;1.70;99.90;;;;;;4857572;29;20037;-77
2022/12/15 16:35:28;;;;;;;32.85;17.08;;;1.70;99.90;;;;;;4858179;29;20040;-76
2022/12/15 16:37:54;;;;;;;35.17;18.05;;;1.70;99.90;;;;;;4889647;29;20037;-78
2022/12/15 16:40:26;;;;;;;32.83;15.73;;;1.70;99.90;;;;;;4890280;29;20081;-75
2022/12/15 16:42:57;;;;;;;32.35;16.45;;;1.70;99.90;;;;;;4890113;29;20033;-75
2022/12/15 16:45:25;;;;;;;32.90;16.60;;;1.70;99.90;;;;;;4890154;29;20050;-76
2022/12/15 16:47:52;;;;;;;31.30;16.55;;;1.70;99.90;;;;;;4873173;29;20250;-77
2022/12/15 16:50:30;;;;;;;34.13;17.33;;;1.70;99.90;;;;;;4890410;29;20120;-75
2022/12/15 16:52:56;;;;;;;;;;;1.70;99.90;;;;;;4890292;29;20038;-77
2022/12/15 16:55:27;;;;;;;34.60;18.52;;;1.60;99.90;;;;;;4890280;29;19975;-78
2022/12/15 16:58:04;;;;;;;38.33;19.08;;;1.60;99.90;;;;;;4889839;29;20084;-76
2022/12/15 17:00:34;;;;;;;39.80;18.88;;;1.60;99.90;;;;;;4890289;29;20085;-76
2022/12/15 17:03:01;;;;;;;32.22;16.63;;;1.60;99.90;;;;;;4890027;29;20060;-74
2022/12/15 17:05:31;;;;;;;30.98;15.85;;;1.70;99.90;;;;;;4890741;29;20333;-75
2022/12/15 17:08:06;;;;;;;29.80;14.98;;;1.70;99.90;;;;;;4890187;29;20075;-74
2022/12/15 17:10:32;;;;;;;31.00;15.82;;;1.60;99.90;;;;;;4882094;29;20053;-76
2022/12/15 17:13:05;;;;;;;32.85;16.73;;;1.60;99.90;;;;;;4863931;29;20041;-73
2022/12/15 17:15:31;;;;;;;39.28;18.48;;;1.60;99.90;;;;;;4877615;29;20093;-76
2022/12/15 17:18:03;;;;;;;31.83;16.58;;;1.60;99.90;;;;;;4857952;29;20223;-75
2022/12/15 17:20:31;;;;;;;30.83;16.13;;;1.60;99.90;;;;;;4872308;29;20045;-77
2022/12/15 17:23:17;;;;;;;41.35;21.73;;;1.70;99.90;;;;;;4871951;29;20027;-76
2022/12/15 17:25:46;;;;;;;39.38;21.85;;;1.70;99.90;;;;;;4889607;29;20037;-77
2022/12/15 17:28:28;;;;;;;41.10;20.98;;;1.70;99.90;;;;;;4889430;29;20043;-75
2022/12/15 17:30:54;;;;;;;32.38;16.98;;;1.70;99.90;;;;;;4889081;29;20028;-74
2022/12/15 17:33:24;;;;;;;34.65;17.17;;;1.70;99.90;;;;;;4889668;29;20097;-74
2022/12/15 17:35:53;;;;;;;33.25;15.93;;;1.60;99.90;;;;;;4889785;29;20076;-74
2022/12/15 17:38:21;;;;;;;30.65;15.93;;;1.70;99.90;;;;;;4872877;29;20086;-75
2022/12/15 17:40:48;;;;;;;33.22;16.83;;;1.70;99.90;;;;;;4889498;29;20108;-75
2022/12/15 17:43:17;;;;;;;32.60;16.17;;;1.60;99.90;;;;;;4871744;29;20044;-74
2022/12/15 17:45:43;;;;;;;35.53;17.20;;;1.60;99.90;;;;;;4889110;29;20037;-74
2022/12/15 17:48:09;;;;;;;32.00;16.15;;;1.50;99.90;;;;;;4888985;29;20037;-73
2022/12/15 17:50:39;;;;;;;36.63;18.20;;;1.50;99.90;;;;;;4889185;29;20036;-72
2022/12/15 17:53:05;;;;;;;33.22;17.80;;;1.50;99.90;;;;;;4888652;29;20040;-76
2022/12/15 17:55:35;;;;;;;39.75;20.67;;;1.50;99.90;;;;;;4872244;29;20299;-75
2022/12/15 17:58:05;;;;;;;35.58;17.83;;;1.50;99.90;;;;;;4888744;29;20104;-73
2022/12/15 18:00:31;;;;;;;33.00;17.73;;;1.50;99.90;;;;;;4889239;29;20085;-74
2022/12/15 18:02:59;;;;;;;30.75;16.45;;;1.50;99.90;;;;;;4888618;29;20048;-74
2022/12/15 18:05:29;;;;;;;30.50;15.73;;;1.50;99.90;;;;;;4889052;29;20128;-74
2022/12/15 18:07:57;;;;;;;34.92;17.45;;;1.50;99.90;;;;;;4888408;29;20041;-73
2022/12/15 18:10:26;;;;;;;32.95;17.10;;;1.50;99.90;;;;;;4878335;29;20056;-75
2022/12/15 18:12:54;;;;;;;31.02;16.20;;;1.50;99.90;;;;;;4870341;29;20082;-79
2022/12/15 18:15:26;;;;;;;27.30;15.32;;;1.50;99.90;;;;;;4838179;29;20330;-74
2022/12/15 18:17:52;;;;;;;30.23;15.60;;;1.50;99.90;;;;;;4870411;29;20036;-77
2022/12/15 18:20:19;;;;;;;34.70;16.13;;;1.50;99.90;;;;;;4870037;29;20033;-76
2022/12/15 18:22:47;;;;;;;32.45;16.40;;;1.50;99.90;;;;;;4883877;29;20048;-76
2022/12/15 18:25:26;;;;;;;28.70;14.93;;;1.50;99.90;;;;;;4888338;29;20283;-74
2022/12/15 18:27:57;;;;;;;31.85;16.20;;;1.50;99.90;;;;;;4888749;29;20052;-76
2022/12/15 18:30:25;;;;;;;32.38;16.73;;;1.50;99.90;;;;;;4888915;29;20096;-74
2022/12/15 18:32:55;;;;;;;29.48;15.38;;;1.50;99.90;;;;;;4871930;29;20104;-75
2022/12/15 18:35:35;;;;;;;30.08;15.05;;;1.50;99.90;;;;;;4888152;29;20426;-74
2022/12/15 18:38:33;;;;;;;32.08;16.25;;;1.50;99.90;;;;;;4887892;29;20311;-73
2022/12/15 18:41:00;;;;;;;31.92;16.15;;;1.50;99.90;;;;;;4854043;29;20053;-74
2022/12/15 18:43:31;;;;;;;34.17;16.90;;;1.40;99.90;;;;;;4888567;29;20043;-76
2022/12/15 18:45:57;;;;;;;33.55;17.08;;;1.40;99.90;;;;;;4888127;29;20045;-76
2022/12/15 18:48:28;;;;;;;34.13;17.33;;;1.40;99.90;;;;;;4888288;29;20033;-74
2022/12/15 18:50:56;;;;;;;31.40;16.48;;;1.40;99.90;;;;;;4888455;29;20033;-74
2022/12/15 18:53:26;;;;;;;38.15;18.63;;;1.40;99.90;;;;;;4856350;29;20029;-73
2022/12/15 18:55:52;;;;;;;38.80;18.57;;;1.40;99.90;;;;;;4888285;29;20044;-75
2022/12/15 18:58:20;;;;;;;43.88;21.77;;;1.30;99.90;;;;;;4887641;29;20355;-75
2022/12/15 19:00:47;;;;;;;33.73;17.50;;;1.40;99.90;;;;;;4887903;29;20035;-76
2022/12/15 19:03:13;;;;;;;35.47;16.88;;;1.40;99.90;;;;;;4887352;29;20350;-75
2022/12/15 19:05:39;;;;;;;32.30;15.70;;;1.40;99.90;;;;;;4871198;29;20037;-73
2022/12/15 19:08:12;;;;;;;36.10;17.77;;;1.40;99.90;;;;;;4887643;29;20047;-76
2022/12/15 19:10:56;;;;;;;33.97;17.08;;;1.40;99.90;;;;;;4875446;29;20025;-73